Terminal Aerodrome Forecast
Issued by NWS Boston, MA

Home | Current Version | Previous Version | Text Only | Print | Product List | Glossary On
Versions: 1 2 3 4 5 6 7 8 9 10 11 12 13 14 15 16 17 18 19 20 21 22 23 24 25 26 27 28 29 30 31 32 33 34 35 36 37 38 39 40 41 42 43 44 45 46
000
FTUS41 KBOX 242320
TAFBOS
TAF
KBOS 242320Z 2500/2606 12005KT P6SM SCT050 BKN250
     FM250300 31004KT P6SM SCT250
     FM251400 05004KT P6SM SKC
     FM251700 12006KT P6SM SKC
     FM260000 19010KT P6SM SKC
     FM260500 23006KT P6SM FEW250=

USA.gov is the U.S. government's official web portal to all federal, state and local government web resources and services.